sensor_id;sensor_type;location;lat;lon;timestamp;temperature;humidity
31677;DHT22;18385;51.572;6.578;2024-01-30T00:01:16;12.10;61.70
31677;DHT22;18385;51.572;6.578;2024-01-30T00:03:41;12.10;61.70
31677;DHT22;18385;51.572;6.578;2024-01-30T00:06:08;12.10;61.70
31677;DHT22;18385;51.572;6.578;2024-01-30T00:08:34;12.10;61.80
31677;DHT22;18385;51.572;6.578;2024-01-30T00:11:00;12.10;61.90
31677;DHT22;18385;51.572;6.578;2024-01-30T00:13:26;12.10;61.80
31677;DHT22;18385;51.572;6.578;2024-01-30T00:15:52;12.00;61.80
31677;DHT22;18385;51.572;6.578;2024-01-30T00:18:19;12.00;61.90
31677;DHT22;18385;51.572;6.578;2024-01-30T00:20:45;12.00;61.90
31677;DHT22;18385;51.572;6.578;2024-01-30T00:23:10;12.00;61.90
31677;DHT22;18385;51.572;6.578;2024-01-30T00:25:36;11.90;61.90
31677;DHT22;18385;51.572;6.578;2024-01-30T00:28:01;11.90;62.00
31677;DHT22;18385;51.572;6.578;2024-01-30T00:30:27;11.90;62.10
31677;DHT22;18385;51.572;6.578;2024-01-30T00:32:54;11.80;62.10
31677;DHT22;18385;51.572;6.578;2024-01-30T00:35:19;11.80;62.20
31677;DHT22;18385;51.572;6.578;2024-01-30T00:37:47;11.70;62.20
31677;DHT22;18385;51.572;6.578;2024-01-30T00:40:13;11.70;62.30
31677;DHT22;18385;51.572;6.578;2024-01-30T00:42:44;11.70;62.40
31677;DHT22;18385;51.572;6.578;2024-01-30T00:45:16;11.70;62.50
31677;DHT22;18385;51.572;6.578;2024-01-30T00:47:43;11.70;62.60
31677;DHT22;18385;51.572;6.578;2024-01-30T00:50:09;11.70;62.60
31677;DHT22;18385;51.572;6.578;2024-01-30T00:52:35;11.70;62.60
31677;DHT22;18385;51.572;6.578;2024-01-30T00:55:01;11.70;62.60
31677;DHT22;18385;51.572;6.578;2024-01-30T00:57:28;11.70;62.60
31677;DHT22;18385;51.572;6.578;2024-01-30T00:59:53;11.70;62.60
31677;DHT22;18385;51.572;6.578;2024-01-30T01:02:19;11.70;62.60
31677;DHT22;18385;51.572;6.578;2024-01-30T01:04:45;11.70;62.70
31677;DHT22;18385;51.572;6.578;2024-01-30T01:07:11;11.70;62.70
31677;DHT22;18385;51.572;6.578;2024-01-30T01:09:37;11.70;62.70
31677;DHT22;18385;51.572;6.578;2024-01-30T01:12:03;11.70;62.80
31677;DHT22;18385;51.572;6.578;2024-01-30T01:14:29;11.70;62.90
31677;DHT22;18385;51.572;6.578;2024-01-30T01:16:54;11.70;62.90
31677;DHT22;18385;51.572;6.578;2024-01-30T01:19:20;11.70;62.90
31677;DHT22;18385;51.572;6.578;2024-01-30T01:21:46;11.70;62.90
31677;DHT22;18385;51.572;6.578;2024-01-30T01:24:12;11.70;62.90
31677;DHT22;18385;51.572;6.578;2024-01-30T01:26:38;11.70;62.90
31677;DHT22;18385;51.572;6.578;2024-01-30T01:29:03;11.70;63.00
31677;DHT22;18385;51.572;6.578;2024-01-30T01:31:38;11.70;63.00
31677;DHT22;18385;51.572;6.578;2024-01-30T01:34:11;11.70;62.90
31677;DHT22;18385;51.572;6.578;2024-01-30T01:36:37;11.70;62.90
31677;DHT22;18385;51.572;6.578;2024-01-30T01:39:02;11.70;63.10
31677;DHT22;18385;51.572;6.578;2024-01-30T01:41:32;11.70;63.10
31677;DHT22;18385;51.572;6.578;2024-01-30T01:43:58;11.70;63.10
31677;DHT22;18385;51.572;6.578;2024-01-30T01:46:27;11.70;63.10
31677;DHT22;18385;51.572;6.578;2024-01-30T01:48:53;11.60;63.10
31677;DHT22;18385;51.572;6.578;2024-01-30T01:51:19;11.70;63.20
31677;DHT22;18385;51.572;6.578;2024-01-30T01:53:46;11.70;63.10
31677;DHT22;18385;51.572;6.578;2024-01-30T01:56:12;11.70;63.10
31677;DHT22;18385;51.572;6.578;2024-01-30T01:58:38;11.70;63.30
31677;DHT22;18385;51.572;6.578;2024-01-30T02:01:04;11.70;63.20
31677;DHT22;18385;51.572;6.578;2024-01-30T02:03:30;11.70;63.20
31677;DHT22;18385;51.572;6.578;2024-01-30T02:05:56;11.80;63.20
31677;DHT22;18385;51.572;6.578;2024-01-30T02:08:23;11.80;63.20
31677;DHT22;18385;51.572;6.578;2024-01-30T02:10:49;11.80;63.30
31677;DHT22;18385;51.572;6.578;2024-01-30T02:13:15;11.80;63.20
31677;DHT22;18385;51.572;6.578;2024-01-30T02:15:41;11.70;63.30
31677;DHT22;18385;51.572;6.578;2024-01-30T02:18:06;11.70;63.30
31677;DHT22;18385;51.572;6.578;2024-01-30T02:20:35;11.70;63.30
31677;DHT22;18385;51.572;6.578;2024-01-30T02:23:02;11.70;63.30
31677;DHT22;18385;51.572;6.578;2024-01-30T02:25:41;11.70;63.30
31677;DHT22;18385;51.572;6.578;2024-01-30T02:28:13;11.70;63.30
31677;DHT22;18385;51.572;6.578;2024-01-30T02:30:39;11.70;63.40
31677;DHT22;18385;51.572;6.578;2024-01-30T02:33:05;11.70;63.40
31677;DHT22;18385;51.572;6.578;2024-01-30T02:35:30;11.70;63.50
31677;DHT22;18385;51.572;6.578;2024-01-30T02:37:56;11.70;63.50
31677;DHT22;18385;51.572;6.578;2024-01-30T02:40:22;11.70;63.50
31677;DHT22;18385;51.572;6.578;2024-01-30T02:42:47;11.70;63.50
31677;DHT22;18385;51.572;6.578;2024-01-30T02:45:13;11.70;63.50
31677;DHT22;18385;51.572;6.578;2024-01-30T02:47:39;11.70;63.50
31677;DHT22;18385;51.572;6.578;2024-01-30T02:50:05;11.70;63.50
31677;DHT22;18385;51.572;6.578;2024-01-30T02:52:32;11.70;63.50
31677;DHT22;18385;51.572;6.578;2024-01-30T02:54:57;11.70;63.50
31677;DHT22;18385;51.572;6.578;2024-01-30T02:57:23;11.80;63.60
31677;DHT22;18385;51.572;6.578;2024-01-30T02:59:48;11.80;63.60
31677;DHT22;18385;51.572;6.578;2024-01-30T03:02:14;11.80;63.60
31677;DHT22;18385;51.572;6.578;2024-01-30T03:04:43;11.80;63.60
31677;DHT22;18385;51.572;6.578;2024-01-30T03:07:09;11.80;63.60
31677;DHT22;18385;51.572;6.578;2024-01-30T03:09:36;11.80;63.60
31677;DHT22;18385;51.572;6.578;2024-01-30T03:12:02;11.70;63.50
31677;DHT22;18385;51.572;6.578;2024-01-30T03:14:28;11.70;63.50
31677;DHT22;18385;51.572;6.578;2024-01-30T03:16:54;11.70;63.60
31677;DHT22;18385;51.572;6.578;2024-01-30T03:19:19;11.70;63.60
31677;DHT22;18385;51.572;6.578;2024-01-30T03:21:45;11.70;63.60
31677;DHT22;18385;51.572;6.578;2024-01-30T03:24:10;11.60;63.70
31677;DHT22;18385;51.572;6.578;2024-01-30T03:26:36;11.60;63.80
31677;DHT22;18385;51.572;6.578;2024-01-30T03:29:02;11.50;63.70
31677;DHT22;18385;51.572;6.578;2024-01-30T03:31:27;11.50;63.80
31677;DHT22;18385;51.572;6.578;2024-01-30T03:33:53;11.50;63.80
31677;DHT22;18385;51.572;6.578;2024-01-30T03:36:19;11.40;63.90
31677;DHT22;18385;51.572;6.578;2024-01-30T03:38:45;11.40;63.90
31677;DHT22;18385;51.572;6.578;2024-01-30T03:41:10;11.40;64.10
31677;DHT22;18385;51.572;6.578;2024-01-30T03:43:36;11.30;64.00
31677;DHT22;18385;51.572;6.578;2024-01-30T03:46:02;11.30;64.00
31677;DHT22;18385;51.572;6.578;2024-01-30T03:48:29;11.40;64.20
31677;DHT22;18385;51.572;6.578;2024-01-30T03:50:54;11.40;64.20
31677;DHT22;18385;51.572;6.578;2024-01-30T03:53:20;11.40;64.20
31677;DHT22;18385;51.572;6.578;2024-01-30T03:55:46;11.40;64.20
31677;DHT22;18385;51.572;6.578;2024-01-30T03:58:12;11.40;64.10
31677;DHT22;18385;51.572;6.578;2024-01-30T04:00:37;11.40;64.10
31677;DHT22;18385;51.572;6.578;2024-01-30T04:03:03;11.40;64.10
31677;DHT22;18385;51.572;6.578;2024-01-30T04:05:29;11.40;64.20
31677;DHT22;18385;51.572;6.578;2024-01-30T04:07:55;11.40;64.20
31677;DHT22;18385;51.572;6.578;2024-01-30T04:10:20;11.30;64.10
31677;DHT22;18385;51.572;6.578;2024-01-30T04:12:46;11.30;64.20
31677;DHT22;18385;51.572;6.578;2024-01-30T04:15:12;11.30;64.30
31677;DHT22;18385;51.572;6.578;2024-01-30T04:17:39;11.30;64.30
31677;DHT22;18385;51.572;6.578;2024-01-30T04:20:05;11.20;64.30
31677;DHT22;18385;51.572;6.578;2024-01-30T04:22:31;11.20;64.40
31677;DHT22;18385;51.572;6.578;2024-01-30T04:24:57;11.20;64.40
31677;DHT22;18385;51.572;6.578;2024-01-30T04:27:23;11.20;65.30
31677;DHT22;18385;51.572;6.578;2024-01-30T04:29:48;11.20;64.50
31677;DHT22;18385;51.572;6.578;2024-01-30T04:32:14;11.20;64.50
31677;DHT22;18385;51.572;6.578;2024-01-30T04:34:40;11.20;64.50
31677;DHT22;18385;51.572;6.578;2024-01-30T04:37:05;11.30;64.50
31677;DHT22;18385;51.572;6.578;2024-01-30T04:39:33;11.20;64.50
31677;DHT22;18385;51.572;6.578;2024-01-30T04:41:58;11.30;64.60
31677;DHT22;18385;51.572;6.578;2024-01-30T04:44:25;11.30;64.50
31677;DHT22;18385;51.572;6.578;2024-01-30T04:46:50;11.30;64.50
31677;DHT22;18385;51.572;6.578;2024-01-30T04:49:16;11.30;64.50
31677;DHT22;18385;51.572;6.578;2024-01-30T04:51:42;11.20;64.50
31677;DHT22;18385;51.572;6.578;2024-01-30T04:54:07;11.20;64.60
31677;DHT22;18385;51.572;6.578;2024-01-30T04:56:33;11.20;64.70
31677;DHT22;18385;51.572;6.578;2024-01-30T04:58:59;11.20;64.60
31677;DHT22;18385;51.572;6.578;2024-01-30T05:01:25;11.20;64.60
31677;DHT22;18385;51.572;6.578;2024-01-30T05:03:51;11.20;64.70
31677;DHT22;18385;51.572;6.578;2024-01-30T05:06:27;11.20;64.80
31677;DHT22;18385;51.572;6.578;2024-01-30T05:08:53;11.20;64.90
31677;DHT22;18385;51.572;6.578;2024-01-30T05:11:18;11.20;64.90
31677;DHT22;18385;51.572;6.578;2024-01-30T05:13:44;11.30;65.00
31677;DHT22;18385;51.572;6.578;2024-01-30T05:16:10;11.30;64.90
31677;DHT22;18385;51.572;6.578;2024-01-30T05:18:36;11.30;64.90
31677;DHT22;18385;51.572;6.578;2024-01-30T05:21:02;11.30;64.90
31677;DHT22;18385;51.572;6.578;2024-01-30T05:23:29;11.40;65.00
31677;DHT22;18385;51.572;6.578;2024-01-30T05:25:54;11.50;65.00
31677;DHT22;18385;51.572;6.578;2024-01-30T05:28:20;11.50;64.90
31677;DHT22;18385;51.572;6.578;2024-01-30T05:30:46;11.50;64.90
31677;DHT22;18385;51.572;6.578;2024-01-30T05:33:11;11.60;64.90
31677;DHT22;18385;51.572;6.578;2024-01-30T05:35:37;11.60;64.80
31677;DHT22;18385;51.572;6.578;2024-01-30T05:38:03;11.70;64.90
31677;DHT22;18385;51.572;6.578;2024-01-30T05:40:30;11.70;64.80
31677;DHT22;18385;51.572;6.578;2024-01-30T05:42:56;11.70;64.80
31677;DHT22;18385;51.572;6.578;2024-01-30T05:45:23;11.70;64.80
31677;DHT22;18385;51.572;6.578;2024-01-30T05:47:49;11.80;64.80
31677;DHT22;18385;51.572;6.578;2024-01-30T05:50:15;11.80;64.90
31677;DHT22;18385;51.572;6.578;2024-01-30T05:52:40;11.80;64.80
31677;DHT22;18385;51.572;6.578;2024-01-30T05:55:06;11.80;64.70
31677;DHT22;18385;51.572;6.578;2024-01-30T05:57:32;11.90;64.70
31677;DHT22;18385;51.572;6.578;2024-01-30T05:59:58;11.90;64.70
31677;DHT22;18385;51.572;6.578;2024-01-30T06:02:23;11.90;64.60
31677;DHT22;18385;51.572;6.578;2024-01-30T06:04:49;11.90;64.70
31677;DHT22;18385;51.572;6.578;2024-01-30T06:07:14;11.90;64.60
31677;DHT22;18385;51.572;6.578;2024-01-30T06:09:40;12.00;64.70
31677;DHT22;18385;51.572;6.578;2024-01-30T06:12:06;12.00;64.60
31677;DHT22;18385;51.572;6.578;2024-01-30T06:14:32;12.00;64.60
31677;DHT22;18385;51.572;6.578;2024-01-30T06:16:59;12.00;64.70
31677;DHT22;18385;51.572;6.578;2024-01-30T06:19:24;12.10;64.70
31677;DHT22;18385;51.572;6.578;2024-01-30T06:21:50;12.10;64.60
31677;DHT22;18385;51.572;6.578;2024-01-30T06:24:16;12.10;64.80
31677;DHT22;18385;51.572;6.578;2024-01-30T06:26:42;12.10;64.50
31677;DHT22;18385;51.572;6.578;2024-01-30T06:29:08;12.00;64.50
31677;DHT22;18385;51.572;6.578;2024-01-30T06:31:40;12.00;64.50
31677;DHT22;18385;51.572;6.578;2024-01-30T06:34:05;12.00;64.60
31677;DHT22;18385;51.572;6.578;2024-01-30T06:36:31;12.00;64.60
31677;DHT22;18385;51.572;6.578;2024-01-30T06:38:56;11.90;64.60
31677;DHT22;18385;51.572;6.578;2024-01-30T06:41:22;11.90;64.60
31677;DHT22;18385;51.572;6.578;2024-01-30T06:43:47;11.90;64.70
31677;DHT22;18385;51.572;6.578;2024-01-30T06:46:13;11.80;64.70
31677;DHT22;18385;51.572;6.578;2024-01-30T06:48:39;11.80;64.80
31677;DHT22;18385;51.572;6.578;2024-01-30T06:51:06;11.80;64.80
31677;DHT22;18385;51.572;6.578;2024-01-30T06:53:31;11.80;64.90
31677;DHT22;18385;51.572;6.578;2024-01-30T06:55:57;11.80;65.00
31677;DHT22;18385;51.572;6.578;2024-01-30T06:58:23;11.80;65.00
31677;DHT22;18385;51.572;6.578;2024-01-30T07:00:48;11.80;65.00
31677;DHT22;18385;51.572;6.578;2024-01-30T07:03:14;11.90;65.00
31677;DHT22;18385;51.572;6.578;2024-01-30T07:05:40;11.80;65.00
31677;DHT22;18385;51.572;6.578;2024-01-30T07:08:06;11.90;65.10
31677;DHT22;18385;51.572;6.578;2024-01-30T07:10:31;12.00;64.90
31677;DHT22;18385;51.572;6.578;2024-01-30T07:12:57;11.90;64.80
31677;DHT22;18385;51.572;6.578;2024-01-30T07:15:22;11.90;64.90
31677;DHT22;18385;51.572;6.578;2024-01-30T07:17:48;12.00;64.90
31677;DHT22;18385;51.572;6.578;2024-01-30T07:20:14;12.00;64.90
31677;DHT22;18385;51.572;6.578;2024-01-30T07:22:40;12.10;64.90
31677;DHT22;18385;51.572;6.578;2024-01-30T07:25:06;12.10;64.80
31677;DHT22;18385;51.572;6.578;2024-01-30T07:27:32;12.20;64.90
31677;DHT22;18385;51.572;6.578;2024-01-30T07:29:58;12.20;64.80
31677;DHT22;18385;51.572;6.578;2024-01-30T07:32:24;12.20;64.80
31677;DHT22;18385;51.572;6.578;2024-01-30T07:34:49;12.20;64.70
31677;DHT22;18385;51.572;6.578;2024-01-30T07:37:15;12.20;64.60
31677;DHT22;18385;51.572;6.578;2024-01-30T07:39:41;12.20;64.70
31677;DHT22;18385;51.572;6.578;2024-01-30T07:42:08;12.20;64.60
31677;DHT22;18385;51.572;6.578;2024-01-30T07:44:34;12.20;64.70
31677;DHT22;18385;51.572;6.578;2024-01-30T07:47:00;12.30;64.70
31677;DHT22;18385;51.572;6.578;2024-01-30T07:49:28;12.30;64.70
31677;DHT22;18385;51.572;6.578;2024-01-30T07:52:03;12.40;64.70
31677;DHT22;18385;51.572;6.578;2024-01-30T07:54:34;12.40;64.70
31677;DHT22;18385;51.572;6.578;2024-01-30T07:57:07;12.40;64.60
31677;DHT22;18385;51.572;6.578;2024-01-30T07:59:35;12.50;64.60
31677;DHT22;18385;51.572;6.578;2024-01-30T08:02:01;12.50;64.60
31677;DHT22;18385;51.572;6.578;2024-01-30T08:04:27;12.50;64.60
31677;DHT22;18385;51.572;6.578;2024-01-30T08:06:53;12.50;64.60
31677;DHT22;18385;51.572;6.578;2024-01-30T08:09:22;12.60;64.60
31677;DHT22;18385;51.572;6.578;2024-01-30T08:11:53;12.60;64.60
31677;DHT22;18385;51.572;6.578;2024-01-30T08:14:31;12.60;64.60
31677;DHT22;18385;51.572;6.578;2024-01-30T08:17:04;12.60;64.60
31677;DHT22;18385;51.572;6.578;2024-01-30T08:19:36;12.70;64.80
31677;DHT22;18385;51.572;6.578;2024-01-30T08:22:12;12.70;64.70
31677;DHT22;18385;51.572;6.578;2024-01-30T08:24:43;12.60;64.50
31677;DHT22;18385;51.572;6.578;2024-01-30T08:27:16;12.80;64.50
31677;DHT22;18385;51.572;6.578;2024-01-30T08:29:48;12.80;64.50
31677;DHT22;18385;51.572;6.578;2024-01-30T08:32:23;12.80;64.40
31677;DHT22;18385;51.572;6.578;2024-01-30T08:35:22;12.90;64.50
31677;DHT22;18385;51.572;6.578;2024-01-30T08:38:13;12.90;64.40
31677;DHT22;18385;51.572;6.578;2024-01-30T08:40:49;12.90;64.50
31677;DHT22;18385;51.572;6.578;2024-01-30T08:43:37;12.90;64.40
31677;DHT22;18385;51.572;6.578;2024-01-30T08:46:03;13.00;64.50
31677;DHT22;18385;51.572;6.578;2024-01-30T08:48:38;13.00;64.40
31677;DHT22;18385;51.572;6.578;2024-01-30T08:51:04;13.10;64.30
31677;DHT22;18385;51.572;6.578;2024-01-30T08:53:34;13.00;64.30
31677;DHT22;18385;51.572;6.578;2024-01-30T08:56:05;13.00;64.20
31677;DHT22;18385;51.572;6.578;2024-01-30T08:58:34;13.00;64.30
31677;DHT22;18385;51.572;6.578;2024-01-30T09:01:00;13.10;64.30
31677;DHT22;18385;51.572;6.578;2024-01-30T09:03:26;13.10;64.30
31677;DHT22;18385;51.572;6.578;2024-01-30T09:05:53;13.10;64.40
31677;DHT22;18385;51.572;6.578;2024-01-30T09:08:18;13.20;64.40
31677;DHT22;18385;51.572;6.578;2024-01-30T09:10:44;13.10;64.40
31677;DHT22;18385;51.572;6.578;2024-01-30T09:13:10;13.20;64.30
31677;DHT22;18385;51.572;6.578;2024-01-30T09:15:35;13.20;64.30
31677;DHT22;18385;51.572;6.578;2024-01-30T09:18:01;13.30;64.40
31677;DHT22;18385;51.572;6.578;2024-01-30T09:20:27;13.40;64.40
31677;DHT22;18385;51.572;6.578;2024-01-30T09:22:52;13.40;64.30
31677;DHT22;18385;51.572;6.578;2024-01-30T09:25:18;13.50;64.30
31677;DHT22;18385;51.572;6.578;2024-01-30T09:27:44;13.50;64.20
31677;DHT22;18385;51.572;6.578;2024-01-30T09:30:10;13.50;64.10
31677;DHT22;18385;51.572;6.578;2024-01-30T09:32:35;13.50;64.00
31677;DHT22;18385;51.572;6.578;2024-01-30T09:35:01;13.50;64.00
31677;DHT22;18385;51.572;6.578;2024-01-30T09:37:45;13.60;64.10
31677;DHT22;18385;51.572;6.578;2024-01-30T09:40:24;13.70;64.20
31677;DHT22;18385;51.572;6.578;2024-01-30T09:43:03;13.80;64.20
31677;DHT22;18385;51.572;6.578;2024-01-30T09:45:35;14.00;64.10
31677;DHT22;18385;51.572;6.578;2024-01-30T09:48:06;14.10;64.00
31677;DHT22;18385;51.572;6.578;2024-01-30T09:50:34;14.30;63.80
31677;DHT22;18385;51.572;6.578;2024-01-30T09:53:17;14.40;63.60
31677;DHT22;18385;51.572;6.578;2024-01-30T09:55:43;14.50;63.40
31677;DHT22;18385;51.572;6.578;2024-01-30T09:58:12;14.50;63.20
31677;DHT22;18385;51.572;6.578;2024-01-30T10:00:51;14.50;63.20
31677;DHT22;18385;51.572;6.578;2024-01-30T10:06:34;14.40;63.20
31677;DHT22;18385;51.572;6.578;2024-01-30T10:09:07;14.40;63.40
31677;DHT22;18385;51.572;6.578;2024-01-30T10:11:38;14.50;63.50
31677;DHT22;18385;51.572;6.578;2024-01-30T10:14:03;14.60;63.40
31677;DHT22;18385;51.572;6.578;2024-01-30T10:16:29;14.50;63.20
31677;DHT22;18385;51.572;6.578;2024-01-30T10:18:55;14.60;63.40
31677;DHT22;18385;51.572;6.578;2024-01-30T10:21:21;14.60;63.20
31677;DHT22;18385;51.572;6.578;2024-01-30T10:23:47;14.60;63.30
31677;DHT22;18385;51.572;6.578;2024-01-30T10:26:12;14.70;63.20
31677;DHT22;18385;51.572;6.578;2024-01-30T10:28:38;14.80;63.20
31677;DHT22;18385;51.572;6.578;2024-01-30T10:31:04;14.90;63.20
31677;DHT22;18385;51.572;6.578;2024-01-30T10:33:30;14.90;63.00
31677;DHT22;18385;51.572;6.578;2024-01-30T10:36:01;14.90;63.00
31677;DHT22;18385;51.572;6.578;2024-01-30T10:38:29;15.00;63.10
31677;DHT22;18385;51.572;6.578;2024-01-30T10:40:57;15.00;62.90
31677;DHT22;18385;51.572;6.578;2024-01-30T10:43:35;15.00;62.70
31677;DHT22;18385;51.572;6.578;2024-01-30T10:46:16;14.90;62.70
31677;DHT22;18385;51.572;6.578;2024-01-30T10:48:50;14.90;62.90
31677;DHT22;18385;51.572;6.578;2024-01-30T10:51:16;14.90;63.00
31677;DHT22;18385;51.572;6.578;2024-01-30T10:53:46;14.90;62.90
31677;DHT22;18385;51.572;6.578;2024-01-30T10:56:14;15.00;63.10
31677;DHT22;18385;51.572;6.578;2024-01-30T10:58:41;15.00;63.00
31677;DHT22;18385;51.572;6.578;2024-01-30T11:01:07;15.10;63.10
31677;DHT22;18385;51.572;6.578;2024-01-30T11:03:34;15.20;63.00
31677;DHT22;18385;51.572;6.578;2024-01-30T11:06:02;15.20;62.80
31677;DHT22;18385;51.572;6.578;2024-01-30T11:08:28;15.30;62.70
31677;DHT22;18385;51.572;6.578;2024-01-30T11:10:58;15.40;62.80
31677;DHT22;18385;51.572;6.578;2024-01-30T11:13:30;15.40;62.50
31677;DHT22;18385;51.572;6.578;2024-01-30T11:16:01;15.50;62.60
31677;DHT22;18385;51.572;6.578;2024-01-30T11:18:30;15.50;62.40
31677;DHT22;18385;51.572;6.578;2024-01-30T11:20:56;15.50;62.40
31677;DHT22;18385;51.572;6.578;2024-01-30T11:23:22;15.60;62.40
31677;DHT22;18385;51.572;6.578;2024-01-30T11:25:48;15.50;62.20
31677;DHT22;18385;51.572;6.578;2024-01-30T11:28:15;15.50;62.30
31677;DHT22;18385;51.572;6.578;2024-01-30T11:30:41;15.50;63.20
31677;DHT22;18385;51.572;6.578;2024-01-30T11:33:10;15.40;62.20
31677;DHT22;18385;51.572;6.578;2024-01-30T11:35:43;15.40;62.30
31677;DHT22;18385;51.572;6.578;2024-01-30T11:38:13;15.40;62.40
31677;DHT22;18385;51.572;6.578;2024-01-30T11:40:40;15.30;62.40
31677;DHT22;18385;51.572;6.578;2024-01-30T11:43:07;15.40;62.60
31677;DHT22;18385;51.572;6.578;2024-01-30T11:45:34;15.40;62.60
31677;DHT22;18385;51.572;6.578;2024-01-30T11:48:00;15.60;62.60
31677;DHT22;18385;51.572;6.578;2024-01-30T11:50:29;15.70;62.30
31677;DHT22;18385;51.572;6.578;2024-01-30T11:52:55;15.70;62.20
31677;DHT22;18385;51.572;6.578;2024-01-30T11:55:21;15.70;62.10
31677;DHT22;18385;51.572;6.578;2024-01-30T11:57:47;15.60;62.00
31677;DHT22;18385;51.572;6.578;2024-01-30T12:00:17;15.60;62.20
31677;DHT22;18385;51.572;6.578;2024-01-30T12:02:44;15.60;62.20
31677;DHT22;18385;51.572;6.578;2024-01-30T12:05:09;15.60;62.30
31677;DHT22;18385;51.572;6.578;2024-01-30T12:07:36;15.70;62.40
31677;DHT22;18385;51.572;6.578;2024-01-30T12:10:02;15.80;62.30
31677;DHT22;18385;51.572;6.578;2024-01-30T12:12:31;15.90;62.30
31677;DHT22;18385;51.572;6.578;2024-01-30T12:14:57;15.90;62.10
31677;DHT22;18385;51.572;6.578;2024-01-30T12:17:30;15.90;61.80
31677;DHT22;18385;51.572;6.578;2024-01-30T12:20:06;15.80;61.90
31677;DHT22;18385;51.572;6.578;2024-01-30T12:22:37;15.80;62.00
31677;DHT22;18385;51.572;6.578;2024-01-30T12:25:08;15.90;62.20
31677;DHT22;18385;51.572;6.578;2024-01-30T12:27:34;15.80;61.90
31677;DHT22;18385;51.572;6.578;2024-01-30T12:30:00;15.80;62.00
31677;DHT22;18385;51.572;6.578;2024-01-30T12:32:26;15.80;62.10
31677;DHT22;18385;51.572;6.578;2024-01-30T12:34:56;15.90;62.20
31677;DHT22;18385;51.572;6.578;2024-01-30T12:37:23;16.00;62.10
31677;DHT22;18385;51.572;6.578;2024-01-30T12:39:51;16.00;61.80
31677;DHT22;18385;51.572;6.578;2024-01-30T12:42:19;16.00;61.80
31677;DHT22;18385;51.572;6.578;2024-01-30T12:44:45;16.00;61.70
31677;DHT22;18385;51.572;6.578;2024-01-30T12:47:27;16.00;61.70
31677;DHT22;18385;51.572;6.578;2024-01-30T12:49:56;15.90;61.60
31677;DHT22;18385;51.572;6.578;2024-01-30T12:52:25;16.00;61.90
31677;DHT22;18385;51.572;6.578;2024-01-30T12:54:56;16.00;62.00
31677;DHT22;18385;51.572;6.578;2024-01-30T12:57:30;16.00;61.80
31677;DHT22;18385;51.572;6.578;2024-01-30T13:00:11;16.10;61.80
31677;DHT22;18385;51.572;6.578;2024-01-30T13:02:43;16.20;61.80
31677;DHT22;18385;51.572;6.578;2024-01-30T13:05:18;16.20;61.60
31677;DHT22;18385;51.572;6.578;2024-01-30T13:08:20;16.20;61.60
31677;DHT22;18385;51.572;6.578;2024-01-30T13:10:58;16.30;61.80
31677;DHT22;18385;51.572;6.578;2024-01-30T13:13:33;16.20;61.60
31677;DHT22;18385;51.572;6.578;2024-01-30T13:16:24;16.30;61.70
31677;DHT22;18385;51.572;6.578;2024-01-30T13:19:22;16.30;62.30
31677;DHT22;18385;51.572;6.578;2024-01-30T13:25:11;16.30;61.40
31677;DHT22;18385;51.572;6.578;2024-01-30T13:27:53;16.30;61.30
31677;DHT22;18385;51.572;6.578;2024-01-30T13:30:41;16.20;61.30
31677;DHT22;18385;51.572;6.578;2024-01-30T13:33:26;16.10;61.50
31677;DHT22;18385;51.572;6.578;2024-01-30T13:36:16;16.10;61.70
31677;DHT22;18385;51.572;6.578;2024-01-30T13:39:12;16.10;61.70
31677;DHT22;18385;51.572;6.578;2024-01-30T13:42:18;16.10;61.60
31677;DHT22;18385;51.572;6.578;2024-01-30T13:45:11;16.10;61.70
31677;DHT22;18385;51.572;6.578;2024-01-30T13:48:02;16.10;61.70
31677;DHT22;18385;51.572;6.578;2024-01-30T13:50:36;16.10;61.60
31677;DHT22;18385;51.572;6.578;2024-01-30T13:53:34;16.00;61.50
31677;DHT22;18385;51.572;6.578;2024-01-30T13:56:27;16.00;61.70
31677;DHT22;18385;51.572;6.578;2024-01-30T13:58:57;16.00;61.80
31677;DHT22;18385;51.572;6.578;2024-01-30T14:01:58;16.00;61.70
31677;DHT22;18385;51.572;6.578;2024-01-30T14:08:14;16.30;62.00
31677;DHT22;18385;51.572;6.578;2024-01-30T14:14:13;16.20;61.40
31677;DHT22;18385;51.572;6.578;2024-01-30T14:16:54;16.30;61.50
31677;DHT22;18385;51.572;6.578;2024-01-30T14:19:20;16.40;61.70
31677;DHT22;18385;51.572;6.578;2024-01-30T14:21:45;16.70;61.70
31677;DHT22;18385;51.572;6.578;2024-01-30T14:24:11;16.60;60.30
31677;DHT22;18385;51.572;6.578;2024-01-30T14:26:37;16.40;60.40
31677;DHT22;18385;51.572;6.578;2024-01-30T14:29:02;16.50;61.10
31677;DHT22;18385;51.572;6.578;2024-01-30T14:31:28;16.50;60.70
31677;DHT22;18385;51.572;6.578;2024-01-30T14:33:53;16.50;60.10
31677;DHT22;18385;51.572;6.578;2024-01-30T14:36:20;16.30;59.80
31677;DHT22;18385;51.572;6.578;2024-01-30T14:38:46;16.10;59.90
31677;DHT22;18385;51.572;6.578;2024-01-30T14:41:12;16.00;59.70
31677;DHT22;18385;51.572;6.578;2024-01-30T14:43:37;15.90;59.90
31677;DHT22;18385;51.572;6.578;2024-01-30T14:46:03;15.80;59.80
31677;DHT22;18385;51.572;6.578;2024-01-30T14:48:31;15.90;60.80
31677;DHT22;18385;51.572;6.578;2024-01-30T14:50:57;15.90;60.00
31677;DHT22;18385;51.572;6.578;2024-01-30T14:53:23;15.70;59.50
31677;DHT22;18385;51.572;6.578;2024-01-30T14:55:48;15.50;59.40
31677;DHT22;18385;51.572;6.578;2024-01-30T14:58:14;15.20;59.40
31677;DHT22;18385;51.572;6.578;2024-01-30T15:00:40;15.00;59.50
31677;DHT22;18385;51.572;6.578;2024-01-30T15:03:05;14.90;59.60
31677;DHT22;18385;51.572;6.578;2024-01-30T15:05:31;14.90;59.80
31677;DHT22;18385;51.572;6.578;2024-01-30T15:07:57;14.90;59.80
31677;DHT22;18385;51.572;6.578;2024-01-30T15:10:22;14.90;59.80
31677;DHT22;18385;51.572;6.578;2024-01-30T15:12:48;15.00;60.60
31677;DHT22;18385;51.572;6.578;2024-01-30T15:15:14;15.10;59.60
31677;DHT22;18385;51.572;6.578;2024-01-30T15:17:40;15.10;59.40
31677;DHT22;18385;51.572;6.578;2024-01-30T15:20:07;15.10;59.30
31677;DHT22;18385;51.572;6.578;2024-01-30T15:22:33;15.00;58.70
31677;DHT22;18385;51.572;6.578;2024-01-30T15:24:59;14.90;58.80
31677;DHT22;18385;51.572;6.578;2024-01-30T15:27:25;14.70;58.50
31677;DHT22;18385;51.572;6.578;2024-01-30T15:29:51;14.70;58.90
31677;DHT22;18385;51.572;6.578;2024-01-30T15:32:16;14.60;58.80
31677;DHT22;18385;51.572;6.578;2024-01-30T15:34:42;14.70;58.90
31677;DHT22;18385;51.572;6.578;2024-01-30T15:37:08;14.60;58.80
31677;DHT22;18385;51.572;6.578;2024-01-30T15:39:34;14.60;58.70
31677;DHT22;18385;51.572;6.578;2024-01-30T15:41:59;14.60;58.70
31677;DHT22;18385;51.572;6.578;2024-01-30T15:44:25;14.60;58.70
31677;DHT22;18385;51.572;6.578;2024-01-30T15:46:51;14.70;58.60
31677;DHT22;18385;51.572;6.578;2024-01-30T15:49:17;14.70;58.50
31677;DHT22;18385;51.572;6.578;2024-01-30T15:51:43;14.70;58.50